Terminal Aerodrome Forecast
Issued by NWS Goodland, KS

Home | Current Version | Previous Version | Text Only | Print | Product List | Glossary On
Versions: 1 2 3 4 5 6 7 8 9 10 11 12 13
712
FTUS43 KGLD 051720
TAFGLD
TAF
KGLD 051720Z 0518/0618 17014G23KT P6SM FEW250
     FM060100 16012KT P6SM FEW250
     FM060900 16010KT P6SM SKC WS020/18035KT
     FM061400 18015KT P6SM SKC=

USA.gov is the U.S. government's official web portal to all federal, state and local government web resources and services.